createdAt,value
2022-11-01T00:02:22.936Z,99006.66
2022-11-01T00:04:51.299Z,99004.00
2022-11-01T00:07:19.440Z,99006.25
2022-11-01T00:09:50.583Z,99002.34
2022-11-01T00:12:18.771Z,99006.84
2022-11-01T00:14:49.516Z,99008.78
2022-11-01T00:17:19.112Z,99010.19
2022-11-01T00:19:49.927Z,99012.53
2022-11-01T00:22:18.035Z,99010.38
2022-11-01T00:24:47.938Z,99016.59
2022-11-01T00:27:19.050Z,99014.06
2022-11-01T00:29:47.170Z,99008.63
2022-11-01T00:32:15.329Z,99011.16
2022-11-01T00:34:43.699Z,99023.38
2022-11-01T00:37:14.481Z,99031.34
2022-11-01T00:39:43.195Z,99027.63
2022-11-01T00:42:11.636Z,99028.81
2022-11-01T00:44:40.103Z,99021.19
2022-11-01T00:47:12.308Z,99013.94
2022-11-01T00:49:41.823Z,99026.41
2022-11-01T00:52:12.483Z,99034.63
2022-11-01T00:54:42.320Z,99034.13
2022-11-01T00:57:10.610Z,99028.22
2022-11-01T00:59:41.009Z,99036.44
2022-11-01T01:02:09.672Z,99035.59
2022-11-01T01:04:42.459Z,99039.47
2022-11-01T01:07:11.644Z,99041.63
2022-11-01T01:09:44.058Z,99048.28
2022-11-01T01:12:12.454Z,99041.88
2022-11-01T01:14:48.041Z,99031.47
2022-11-01T01:17:16.590Z,99033.78
2022-11-01T01:19:45.099Z,99021.91
2022-11-01T01:22:13.928Z,99028.81
2022-11-01T01:24:46.021Z,99015.16
2022-11-01T01:27:14.914Z,99016.00
2022-11-01T01:29:47.129Z,99015.16
2022-11-01T01:32:18.303Z,99013.56
2022-11-01T01:34:46.702Z,99009.59
2022-11-01T01:37:16.664Z,99006.06
2022-11-01T01:39:46.666Z,99000.03
2022-11-01T01:42:21.582Z,99002.56
2022-11-01T01:45:22.865Z,98990.69
2022-11-01T01:47:55.176Z,98980.06
2022-11-01T01:50:33.402Z,98961.81
2022-11-01T01:53:07.186Z,98963.84
2022-11-01T01:55:43.459Z,98967.13
2022-11-01T01:58:14.888Z,98961.19
2022-11-01T02:00:47.222Z,98961.06
2022-11-01T02:03:19.446Z,98972.22
2022-11-01T02:05:52.407Z,98975.00
2022-11-01T02:08:28.093Z,98975.59
2022-11-01T02:11:04.631Z,98958.53
2022-11-01T02:13:33.399Z,98961.19
2022-11-01T02:16:28.987Z,98956.72
2022-11-01T02:19:15.843Z,98953.59
2022-11-01T02:22:03.496Z,98959.63
2022-11-01T02:25:11.245Z,98975.84
2022-11-01T02:28:02.539Z,98959.63
2022-11-01T02:30:41.655Z,98965.81
2022-11-01T02:33:25.650Z,98967.47
2022-11-01T02:36:02.148Z,98966.53
2022-11-01T02:38:42.742Z,98960.47
2022-11-01T02:41:14.970Z,98947.88
2022-11-01T02:43:52.981Z,98946.44
2022-11-01T02:46:48.817Z,98954.53
2022-11-01T02:49:24.305Z,98958.06
2022-11-01T02:51:54.059Z,98959.28
2022-11-01T02:54:24.440Z,98975.59
2022-11-01T02:56:53.195Z,98976.69
2022-11-01T02:59:26.776Z,98981.16
2022-11-01T03:02:05.307Z,98986.34
2022-11-01T03:04:39.359Z,98984.66
2022-11-01T03:07:12.237Z,98990.69
2022-11-01T03:09:42.194Z,98995.44
2022-11-01T03:12:16.916Z,98990.38
2022-11-01T03:14:55.495Z,98986.59
2022-11-01T03:17:30.124Z,98980.56
2022-11-01T03:20:08.919Z,98990.13
2022-11-01T03:22:44.288Z,98995.69
2022-11-01T03:25:31.317Z,98994.81
2022-11-01T03:28:02.993Z,98988.31
2022-11-01T03:30:34.838Z,98993.97
2022-11-01T03:33:03.250Z,98989.75
2022-11-01T03:35:39.184Z,98992.66
2022-11-01T03:38:15.663Z,98989.63
2022-11-01T03:40:51.136Z,98989.63
2022-11-01T03:43:22.218Z,99002.66
2022-11-01T03:45:50.806Z,99011.63
2022-11-01T03:48:19.641Z,99012.25
2022-11-01T03:50:53.912Z,99018.28
2022-11-01T03:53:22.281Z,99029.66
2022-11-01T03:55:54.218Z,99033.53
2022-11-01T03:58:22.788Z,99043.59
2022-11-01T04:00:56.060Z,99051.06
2022-11-01T04:03:24.282Z,99056.50
2022-11-01T04:05:54.312Z,99061.72
2022-11-01T04:08:22.829Z,99061.25
2022-11-01T04:10:52.877Z,99059.16
2022-11-01T04:13:21.019Z,99057.97
2022-11-01T04:16:06.370Z,99065.34
2022-11-01T04:18:52.038Z,99062.09
2022-11-01T04:21:27.104Z,99063.16
2022-11-01T04:23:55.495Z,99058.22
2022-11-01T04:26:26.152Z,99065.81
2022-11-01T04:29:00.132Z,99073.78
2022-11-01T04:31:31.262Z,99069.56
2022-11-01T04:34:01.077Z,99071.13
2022-11-01T04:36:32.202Z,99074.63
2022-11-01T04:39:01.316Z,99080.72
2022-11-01T04:41:31.356Z,99085.28
2022-11-01T04:44:00.844Z,99077.69
2022-11-01T04:46:32.230Z,99087.72
2022-11-01T04:49:00.701Z,99093.78
2022-11-01T04:51:28.932Z,99082.16
2022-11-01T04:53:59.444Z,99085.41
2022-11-01T04:56:27.873Z,99084.94
2022-11-01T04:58:58.202Z,99096.31
2022-11-01T05:01:26.740Z,99106.25
2022-11-01T05:03:57.614Z,99102.00
2022-11-01T05:06:28.175Z,99105.38
2022-11-01T05:08:56.699Z,99108.63
2022-11-01T05:11:26.885Z,99101.75
2022-11-01T05:13:55.773Z,99111.91
2022-11-01T05:16:24.219Z,99118.09
2022-11-01T05:18:52.653Z,99114.31
2022-11-01T05:21:21.113Z,99112.78
2022-11-01T05:23:50.029Z,99121.13
2022-11-01T05:26:18.590Z,99117.97
2022-11-01T05:28:48.804Z,99108.19
2022-11-01T05:31:17.037Z,99108.44
2022-11-01T05:33:46.741Z,99114.09
2022-11-01T05:36:15.259Z,99107.94
2022-11-01T05:38:44.223Z,99103.34
2022-11-01T05:43:41.918Z,99126.69
2022-11-01T05:46:11.655Z,99121.38
2022-11-01T05:48:40.159Z,99134.44
2022-11-01T05:51:09.118Z,99133.44
2022-11-01T05:53:39.960Z,99117.88
2022-11-01T05:56:08.518Z,99132.00
2022-11-01T05:58:37.614Z,99128.00
2022-11-01T06:01:07.636Z,99128.63
2022-11-01T06:03:39.448Z,99130.94
2022-11-01T06:06:08.079Z,99131.78
2022-11-01T06:08:38.247Z,99131.56
2022-11-01T06:11:07.991Z,99147.03
2022-11-01T06:13:36.663Z,99140.50
2022-11-01T06:16:09.540Z,99144.59
2022-11-01T06:18:39.596Z,99151.75
2022-11-01T06:21:08.236Z,99146.19
2022-11-01T06:23:37.419Z,99155.00
2022-11-01T06:26:07.486Z,99155.00
2022-11-01T06:28:36.265Z,99156.25
2022-11-01T06:33:38.816Z,99149.34
2022-11-01T06:36:07.768Z,99148.13
2022-11-01T06:38:37.393Z,99167.28
2022-11-01T06:41:06.186Z,99169.22
2022-11-01T06:43:35.342Z,99170.88
2022-11-01T06:46:04.340Z,99171.75
2022-11-01T06:48:37.287Z,99176.44
2022-11-01T06:51:07.749Z,99180.22
2022-11-01T06:53:36.885Z,99197.19
2022-11-01T06:56:07.945Z,99203.09
2022-11-01T06:58:37.050Z,99202.38
2022-11-01T07:01:05.742Z,99194.13
2022-11-01T07:03:38.048Z,99205.44
2022-11-01T07:06:09.630Z,99213.66
2022-11-01T07:08:37.775Z,99217.78
2022-11-01T07:11:06.606Z,99222.00
2022-11-01T07:13:38.683Z,99221.88
2022-11-01T07:16:08.276Z,99215.13
2022-11-01T07:18:36.657Z,99222.75
2022-11-01T07:21:06.434Z,99226.50
2022-11-01T07:23:37.097Z,99231.69
2022-11-01T07:26:05.886Z,99245.00
2022-11-01T07:28:35.336Z,99249.50
2022-11-01T07:31:04.454Z,99255.06
2022-11-01T07:33:34.477Z,99261.84
2022-11-01T07:36:13.278Z,99263.31
2022-11-01T07:38:43.753Z,99261.88
2022-11-01T07:41:12.268Z,99265.53
2022-11-01T07:43:41.247Z,99278.47
2022-11-01T07:46:12.779Z,99280.56
2022-11-01T07:48:42.468Z,99289.66
2022-11-01T07:51:11.043Z,99287.28
2022-11-01T07:53:40.506Z,99302.38
2022-11-01T07:56:22.490Z,99294.78
2022-11-01T07:58:53.078Z,99288.47
2022-11-01T08:01:30.144Z,99296.00
2022-11-01T08:03:59.036Z,99295.16
2022-11-01T08:06:30.738Z,99296.72
2022-11-01T08:08:59.542Z,99296.00
2022-11-01T08:11:30.206Z,99303.53
2022-11-01T08:14:02.933Z,99299.97
2022-11-01T08:16:35.126Z,99295.47
2022-11-01T08:19:05.015Z,99302.72
2022-11-01T08:21:33.601Z,99301.66
2022-11-01T08:24:05.152Z,99301.66
2022-11-01T08:26:34.654Z,99295.06
2022-11-01T08:29:07.825Z,99294.22
2022-11-01T08:31:36.723Z,99291.78
2022-11-01T08:34:28.643Z,99283.41
2022-11-01T08:36:59.686Z,99294.28
2022-11-01T08:39:28.899Z,99285.47
2022-11-01T08:42:01.716Z,99288.00
2022-11-01T08:44:30.813Z,99291.75
2022-11-01T08:47:01.260Z,99285.25
2022-11-01T08:49:29.839Z,99283.53
2022-11-01T08:51:58.365Z,99283.03
2022-11-01T08:54:28.918Z,99280.94
2022-11-01T08:57:02.135Z,99296.03
2022-11-01T08:59:31.383Z,99284.78
2022-11-01T09:02:00.054Z,99289.28
2022-11-01T09:04:31.312Z,99289.41
2022-11-01T09:06:59.792Z,99286.59
2022-11-01T09:09:29.873Z,99284.06
2022-11-01T09:12:00.463Z,99288.38
2022-11-01T09:14:31.593Z,99291.66
2022-11-01T09:17:02.268Z,99290.81
2022-11-01T09:19:30.708Z,99287.56
2022-11-01T09:22:02.020Z,99295.88
2022-11-01T09:24:31.723Z,99299.28
2022-11-01T09:27:02.084Z,99302.91
2022-11-01T09:29:30.632Z,99299.97
2022-11-01T09:32:00.358Z,99289.63
2022-11-01T09:34:31.366Z,99302.28
2022-11-01T09:37:00.537Z,99298.75
2022-11-01T09:39:29.269Z,99296.63
2022-11-01T09:42:03.925Z,99296.19
2022-11-01T09:44:37.761Z,99291.84
2022-11-01T09:47:09.899Z,99299.53
2022-11-01T09:49:42.461Z,99294.19
2022-11-01T09:52:21.104Z,99295.31
2022-11-01T09:54:50.402Z,99288.00
2022-11-01T09:57:28.957Z,99286.63
2022-11-01T10:00:06.396Z,99286.63
2022-11-01T10:02:57.890Z,99289.38
2022-11-01T10:06:02.261Z,99299.84
2022-11-01T10:08:53.027Z,99295.25
2022-11-01T10:11:48.231Z,99285.56
2022-11-01T10:14:34.278Z,99292.47
2022-11-01T10:17:13.544Z,99301.09
2022-11-01T10:19:48.658Z,99294.00
2022-11-01T10:22:19.930Z,99290.81
2022-11-01T10:24:53.197Z,99283.88
2022-11-01T10:27:34.576Z,99280.22
2022-11-01T10:30:14.340Z,99277.34
2022-11-01T10:32:48.799Z,99262.56
2022-11-01T10:35:22.872Z,99254.81
2022-11-01T10:38:11.154Z,99254.63
2022-11-01T10:40:53.422Z,99253.06
2022-11-01T10:43:24.598Z,99248.38
2022-11-01T10:45:59.725Z,99235.94
2022-11-01T10:48:34.867Z,99214.75
2022-11-01T10:51:06.681Z,99226.78
2022-11-01T10:53:42.508Z,99229.84
2022-11-01T10:56:19.865Z,99219.25
2022-11-01T10:59:00.716Z,99223.28
2022-11-01T11:01:33.989Z,99211.72
2022-11-01T11:04:05.179Z,99213.44
2022-11-01T11:06:38.593Z,99210.50
2022-11-01T11:09:08.066Z,99210.50
2022-11-01T11:11:40.929Z,99211.66
2022-11-01T11:14:11.202Z,99202.75
2022-11-01T11:16:47.049Z,99221.91
2022-11-01T11:19:19.894Z,99212.38
2022-11-01T11:21:51.003Z,99207.50
2022-11-01T11:24:24.076Z,99217.31
2022-11-01T11:26:55.235Z,99221.50
2022-11-01T11:29:41.171Z,99222.22
2022-11-01T11:32:17.222Z,99208.41
2022-11-01T11:34:54.707Z,99232.38
2022-11-01T11:37:27.493Z,99227.59
2022-11-01T11:40:19.723Z,99232.72
2022-11-01T11:42:50.474Z,99230.09
2022-11-01T11:45:25.312Z,99227.53
2022-11-01T11:47:56.285Z,99224.25
2022-11-01T11:50:36.931Z,99221.25
2022-11-01T11:53:08.810Z,99223.19
2022-11-01T11:55:42.506Z,99221.41
2022-11-01T11:58:23.130Z,99220.59
2022-11-01T12:00:57.038Z,99229.34
2022-11-01T12:03:27.782Z,99224.25
2022-11-01T12:06:00.085Z,99227.31
2022-11-01T12:08:39.037Z,99226.91
2022-11-01T12:11:07.817Z,99230.72
2022-11-01T12:13:38.502Z,99232.41
2022-11-01T12:16:24.934Z,99236.41
2022-11-01T12:19:03.372Z,99232.56
2022-11-01T12:21:36.111Z,99243.78
2022-11-01T12:24:17.428Z,99228.91
2022-11-01T12:26:47.632Z,99233.22
2022-11-01T12:29:26.595Z,99235.97
2022-11-01T12:31:58.816Z,99230.13
2022-11-01T12:34:37.153Z,99233.81
2022-11-01T12:37:16.544Z,99227.84
2022-11-01T12:39:51.223Z,99239.09
2022-11-01T12:42:28.970Z,99232.59
2022-11-01T12:45:04.983Z,99236.13
2022-11-01T12:47:40.410Z,99241.25
2022-11-01T12:50:21.624Z,99235.75
2022-11-01T12:52:54.912Z,99226.34
2022-11-01T12:55:32.508Z,99231.09
2022-11-01T13:01:06.077Z,99221.47
2022-11-01T13:03:45.783Z,99226.16
2022-11-01T13:06:41.543Z,99221.56
2022-11-01T13:09:16.435Z,99224.31
2022-11-01T13:11:52.241Z,99230.50
2022-11-01T13:14:38.015Z,99230.25
2022-11-01T13:17:21.429Z,99223.59
2022-11-01T13:20:01.129Z,99218.97
2022-11-01T13:22:41.943Z,99231.53
2022-11-01T13:25:19.786Z,99221.31
2022-11-01T13:27:57.330Z,99220.88
2022-11-01T13:30:26.810Z,99227.88
2022-11-01T13:33:01.075Z,99219.16
2022-11-01T13:35:49.681Z,99235.84
2022-11-01T13:38:36.655Z,99238.91
2022-11-01T13:41:19.759Z,99229.97
2022-11-01T13:43:54.435Z,99235.44
2022-11-01T13:46:48.479Z,99234.84
2022-11-01T13:49:54.203Z,99233.78
2022-11-01T13:52:28.722Z,99234.69
2022-11-01T13:55:07.992Z,99234.22
2022-11-01T13:57:41.178Z,99238.59
2022-11-01T14:00:39.684Z,99238.28
2022-11-01T14:03:37.419Z,99234.28
2022-11-01T14:06:31.624Z,99246.09
2022-11-01T14:09:31.649Z,99228.06
2022-11-01T14:12:13.832Z,99248.56
2022-11-01T14:14:53.511Z,99239.38
2022-11-01T14:18:05.413Z,99240.47
2022-11-01T14:20:52.226Z,99245.00
2022-11-01T14:24:01.977Z,99245.06
2022-11-01T14:27:02.209Z,99238.97
2022-11-01T14:29:36.174Z,99247.16
2022-11-01T14:32:06.118Z,99243.03
2022-11-01T14:34:39.133Z,99247.09
2022-11-01T14:37:19.409Z,99240.00
2022-11-01T14:39:57.667Z,99237.91
2022-11-01T14:42:37.299Z,99238.50
2022-11-01T14:45:30.279Z,99235.97
2022-11-01T14:48:03.048Z,99246.69
2022-11-01T14:50:39.637Z,99252.56
2022-11-01T14:53:12.569Z,99248.41
2022-11-01T14:55:43.198Z,99256.38
2022-11-01T14:58:20.442Z,99251.81
2022-11-01T15:00:55.071Z,99254.13
2022-11-01T15:03:24.919Z,99251.03
2022-11-01T15:05:54.314Z,99240.34
2022-11-01T15:08:30.381Z,99250.53
2022-11-01T15:11:04.845Z,99252.16
2022-11-01T15:13:39.339Z,99249.50
2022-11-01T15:16:16.890Z,99255.16
2022-11-01T15:18:49.688Z,99262.63
2022-11-01T15:21:28.768Z,99264.50
2022-11-01T15:24:08.675Z,99259.00
2022-11-01T15:26:37.502Z,99261.09
2022-11-01T15:29:08.462Z,99257.06
2022-11-01T15:31:50.425Z,99259.44
2022-11-01T15:34:25.278Z,99261.34
2022-11-01T15:36:54.306Z,99258.47
2022-11-01T15:39:29.340Z,99254.16
2022-11-01T15:41:58.105Z,99247.75
2022-11-01T15:44:28.300Z,99264.81
2022-11-01T15:47:06.828Z,99262.59
2022-11-01T15:49:38.760Z,99264.81
2022-11-01T15:52:17.158Z,99262.94
2022-11-01T15:54:53.627Z,99255.59
2022-11-01T15:57:26.322Z,99273.56
2022-11-01T16:00:05.784Z,99268.53
2022-11-01T16:02:41.986Z,99269.69
2022-11-01T16:05:12.947Z,99282.34
2022-11-01T16:07:42.210Z,99287.66
2022-11-01T16:10:17.965Z,99285.63
2022-11-01T16:12:48.452Z,99283.06
2022-11-01T16:15:24.314Z,99289.59
2022-11-01T16:17:59.198Z,99288.41
2022-11-01T16:20:34.155Z,99293.94
2022-11-01T16:23:04.296Z,99304.34
2022-11-01T16:25:35.355Z,99297.94
2022-11-01T16:28:07.626Z,99307.13
2022-11-01T16:30:42.890Z,99309.03
2022-11-01T16:33:22.216Z,99311.13
2022-11-01T16:35:52.215Z,99319.25
2022-11-01T16:38:25.546Z,99320.59
2022-11-01T16:40:56.515Z,99318.56
2022-11-01T16:43:27.891Z,99321.69
2022-11-01T16:45:56.530Z,99321.81
2022-11-01T16:48:28.968Z,99319.53
2022-11-01T16:50:59.134Z,99334.16
2022-11-01T16:53:29.449Z,99339.91
2022-11-01T16:56:34.961Z,99333.63
2022-11-01T16:59:00.496Z,99338.22
2022-11-01T17:01:35.326Z,99341.75
2022-11-01T17:04:08.351Z,99344.41
2022-11-01T17:06:39.130Z,99349.00
2022-11-01T17:09:13.357Z,99347.97
2022-11-01T17:11:47.895Z,99354.56
2022-11-01T17:14:18.100Z,99356.38
2022-11-01T17:16:49.260Z,99357.84
2022-11-01T17:19:25.637Z,99362.50
2022-11-01T17:21:56.306Z,99362.69
2022-11-01T17:24:27.446Z,99366.81
2022-11-01T17:27:02.059Z,99376.25
2022-11-01T17:29:31.646Z,99370.81
2022-11-01T17:32:01.182Z,99370.38
2022-11-01T17:34:31.206Z,99367.72
2022-11-01T17:36:59.952Z,99374.97
2022-11-01T17:39:30.370Z,99371.44
2022-11-01T17:41:59.496Z,99358.88
2022-11-01T17:44:27.888Z,99367.00
2022-11-01T17:46:56.274Z,99362.00
2022-11-01T17:49:24.834Z,99377.88
2022-11-01T17:51:55.366Z,99361.66
2022-11-01T17:56:54.684Z,99365.41
2022-11-01T17:59:24.918Z,99364.44
2022-11-01T18:01:55.376Z,99358.28
2022-11-01T18:04:24.384Z,99361.34
2022-11-01T18:07:03.171Z,99364.88
2022-11-01T18:09:31.400Z,99371.38
2022-11-01T18:12:06.280Z,99387.53
2022-11-01T18:14:49.374Z,99385.94
2022-11-01T18:17:33.894Z,99398.84
2022-11-01T18:20:11.125Z,99395.97
2022-11-01T18:22:50.205Z,99404.88
2022-11-01T18:25:29.969Z,99395.97
2022-11-01T18:28:02.550Z,99400.72
2022-11-01T18:30:31.829Z,99402.53
2022-11-01T18:33:06.233Z,99413.69
2022-11-01T18:35:39.647Z,99409.00
2022-11-01T18:38:21.923Z,99413.88
2022-11-01T18:40:57.399Z,99419.19
2022-11-01T18:43:28.200Z,99417.34
2022-11-01T18:46:23.339Z,99421.56
2022-11-01T18:48:46.198Z,99419.56
2022-11-01T18:51:20.215Z,99426.59
2022-11-01T18:53:54.586Z,99423.31
2022-11-01T18:56:25.616Z,99425.22
2022-11-01T18:58:55.721Z,99423.78
2022-11-01T19:01:31.973Z,99432.81
2022-11-01T19:04:03.423Z,99428.88
2022-11-01T19:06:35.702Z,99443.22
2022-11-01T19:09:17.774Z,99435.47
2022-11-01T19:11:46.135Z,99432.47
2022-11-01T19:14:22.953Z,99428.59
2022-11-01T19:16:53.297Z,99432.72
2022-11-01T19:19:22.349Z,99435.88
2022-11-01T19:21:52.899Z,99431.63
2022-11-01T19:24:35.243Z,99433.50
2022-11-01T19:27:04.431Z,99435.38
2022-11-01T19:29:35.655Z,99436.63
2022-11-01T19:32:06.809Z,99434.16
2022-11-01T19:34:38.783Z,99431.41
2022-11-01T19:37:23.064Z,99439.78
2022-11-01T19:39:56.208Z,99440.28
2022-11-01T19:42:29.051Z,99442.63
2022-11-01T19:45:00.592Z,99437.19
2022-11-01T19:47:39.187Z,99437.31
2022-11-01T19:50:26.646Z,99441.31
2022-11-01T19:52:59.702Z,99443.09
2022-11-01T19:55:39.895Z,99439.78
2022-11-01T19:58:26.908Z,99432.22
2022-11-01T20:01:30.084Z,99432.69
2022-11-01T20:04:01.457Z,99431.63
2022-11-01T20:06:33.675Z,99441.78
2022-11-01T20:09:05.739Z,99441.75
2022-11-01T20:11:36.208Z,99449.44
2022-11-01T20:14:05.131Z,99451.53
2022-11-01T20:16:33.980Z,99455.25
2022-11-01T20:19:02.491Z,99448.72
2022-11-01T20:21:31.016Z,99458.28
2022-11-01T20:24:00.177Z,99468.78
2022-11-01T20:26:30.320Z,99465.75
2022-11-01T20:29:00.763Z,99463.88
2022-11-01T20:31:29.720Z,99465.56
2022-11-01T20:34:00.480Z,99470.69
2022-11-01T20:36:30.861Z,99474.66
2022-11-01T20:38:59.229Z,99477.22
2022-11-01T20:41:27.956Z,99468.59
2022-11-01T20:43:56.829Z,99469.34
2022-11-01T20:46:27.163Z,99473.13
2022-11-01T20:48:56.377Z,99485.75
2022-11-01T20:51:29.863Z,99490.47
2022-11-01T20:54:00.342Z,99491.59
2022-11-01T20:56:30.002Z,99490.84
2022-11-01T20:58:58.738Z,99484.59
2022-11-01T21:01:30.106Z,99488.41
2022-11-01T21:04:02.955Z,99500.06
2022-11-01T21:06:33.824Z,99494.38
2022-11-01T21:09:03.942Z,99492.28
2022-11-01T21:11:44.358Z,99495.13
2022-11-01T21:14:17.248Z,99494.66
2022-11-01T21:16:48.213Z,99497.59
2022-11-01T21:19:22.778Z,99506.03
2022-11-01T21:21:54.681Z,99503.94
2022-11-01T21:24:31.411Z,99503.94
2022-11-01T21:27:25.015Z,99493.97
2022-11-01T21:29:55.626Z,99499.16
2022-11-01T21:32:44.151Z,99494.63
2022-11-01T21:35:41.305Z,99497.66
2022-11-01T21:38:35.547Z,99490.28
2022-11-01T21:41:17.213Z,99495.75
2022-11-01T21:43:47.570Z,99494.09
2022-11-01T21:46:18.732Z,99488.78
2022-11-01T21:48:49.386Z,99493.97
2022-11-01T21:51:18.450Z,99494.94
2022-11-01T21:53:48.154Z,99496.13
2022-11-01T21:56:16.515Z,99495.78
2022-11-01T21:58:45.104Z,99492.91
2022-11-01T22:01:14.117Z,99494.28
2022-11-01T22:03:43.822Z,99494.97
2022-11-01T22:06:15.310Z,99491.19
2022-11-01T22:08:44.107Z,99488.28
2022-11-01T22:11:15.242Z,99483.66
2022-11-01T22:13:48.451Z,99479.13
2022-11-01T22:16:16.656Z,99475.03
2022-11-01T22:18:45.624Z,99478.00
2022-11-01T22:21:16.092Z,99479.13
2022-11-01T22:23:44.574Z,99477.16
2022-11-01T22:26:13.292Z,99478.84
2022-11-01T22:28:42.970Z,99479.28
2022-11-01T22:31:11.488Z,99481.19
2022-11-01T22:33:40.537Z,99487.84
2022-11-01T22:36:13.953Z,99479.53
2022-11-01T22:38:46.888Z,99482.56
2022-11-01T22:41:18.112Z,99478.69
2022-11-01T22:43:49.789Z,99478.31
2022-11-01T22:46:22.022Z,99469.28
2022-11-01T22:48:53.146Z,99462.81
2022-11-01T22:51:29.004Z,99475.66
2022-11-01T22:54:01.230Z,99472.72
2022-11-01T22:56:36.226Z,99468.69
2022-11-01T22:59:04.916Z,99475.53
2022-11-01T23:01:34.638Z,99473.31
2022-11-01T23:04:04.737Z,99483.34
2022-11-01T23:06:35.223Z,99480.69
2022-11-01T23:09:16.530Z,99481.47
2022-11-01T23:12:03.444Z,99475.47
2022-11-01T23:14:41.063Z,99477.53
2022-11-01T23:17:22.680Z,99478.47
2022-11-01T23:19:59.470Z,99486.06
2022-11-01T23:22:32.782Z,99482.72
2022-11-01T23:25:02.914Z,99483.19
2022-11-01T23:27:33.475Z,99473.94
2022-11-01T23:30:03.542Z,99475.56
2022-11-01T23:32:34.201Z,99472.66
2022-11-01T23:35:11.567Z,99484.97
2022-11-01T23:37:45.021Z,99472.22
2022-11-01T23:40:23.270Z,99484.78
2022-11-01T23:42:55.234Z,99482.19
2022-11-01T23:45:35.020Z,99483.03
2022-11-01T23:48:05.097Z,99480.50
2022-11-01T23:50:35.720Z,99477.41
2022-11-01T23:53:08.049Z,99482.09
2022-11-01T23:55:41.489Z,99478.69
2022-11-01T23:58:13.807Z,99479.31
